sensor_id;sensor_type;location;lat;lon;timestamp;P1;durP1;ratioP1;P2;durP2;ratioP2
39776;SDS011;25453;48.162;14.510;2024-03-29T00:01:26;1.55;;;0.90;;
39776;SDS011;25453;48.162;14.510;2024-03-29T00:03:52;1.85;;;1.02;;
39776;SDS011;25453;48.162;14.510;2024-03-29T00:06:18;2.65;;;0.95;;
39776;SDS011;25453;48.162;14.510;2024-03-29T00:08:45;2.75;;;1.17;;
39776;SDS011;25453;48.162;14.510;2024-03-29T00:11:11;2.55;;;1.08;;
39776;SDS011;25453;48.162;14.510;2024-03-29T00:13:38;1.65;;;0.85;;
39776;SDS011;25453;48.162;14.510;2024-03-29T00:16:04;1.73;;;0.75;;
39776;SDS011;25453;48.162;14.510;2024-03-29T00:18:30;1.83;;;0.80;;
39776;SDS011;25453;48.162;14.510;2024-03-29T00:20:56;1.17;;;0.68;;
39776;SDS011;25453;48.162;14.510;2024-03-29T00:23:22;1.65;;;0.80;;
39776;SDS011;25453;48.162;14.510;2024-03-29T00:25:48;1.90;;;0.80;;
39776;SDS011;25453;48.162;14.510;2024-03-29T00:28:15;1.20;;;0.73;;
39776;SDS011;25453;48.162;14.510;2024-03-29T00:30:41;1.20;;;0.80;;
39776;SDS011;25453;48.162;14.510;2024-03-29T00:33:07;1.25;;;0.60;;
39776;SDS011;25453;48.162;14.510;2024-03-29T00:35:33;0.90;;;0.63;;
39776;SDS011;25453;48.162;14.510;2024-03-29T00:37:59;1.25;;;0.60;;
39776;SDS011;25453;48.162;14.510;2024-03-29T00:40:25;3.92;;;0.90;;
39776;SDS011;25453;48.162;14.510;2024-03-29T00:42:51;1.13;;;0.63;;
39776;SDS011;25453;48.162;14.510;2024-03-29T00:45:18;1.90;;;0.73;;
39776;SDS011;25453;48.162;14.510;2024-03-29T00:47:44;2.22;;;1.00;;
39776;SDS011;25453;48.162;14.510;2024-03-29T00:50:10;2.08;;;1.05;;
39776;SDS011;25453;48.162;14.510;2024-03-29T00:52:36;2.00;;;1.00;;
39776;SDS011;25453;48.162;14.510;2024-03-29T00:55:02;1.52;;;0.95;;
39776;SDS011;25453;48.162;14.510;2024-03-29T00:57:29;1.80;;;1.15;;
39776;SDS011;25453;48.162;14.510;2024-03-29T00:59:55;2.45;;;1.30;;
39776;SDS011;25453;48.162;14.510;2024-03-29T01:02:23;2.30;;;1.30;;
39776;SDS011;25453;48.162;14.510;2024-03-29T01:04:50;3.65;;;1.40;;
39776;SDS011;25453;48.162;14.510;2024-03-29T01:07:16;2.28;;;1.63;;
39776;SDS011;25453;48.162;14.510;2024-03-29T01:09:43;2.20;;;1.17;;
39776;SDS011;25453;48.162;14.510;2024-03-29T01:12:09;1.88;;;0.90;;
39776;SDS011;25453;48.162;14.510;2024-03-29T01:14:36;1.65;;;1.02;;
39776;SDS011;25453;48.162;14.510;2024-03-29T01:17:03;2.47;;;1.50;;
39776;SDS011;25453;48.162;14.510;2024-03-29T01:19:29;2.22;;;1.20;;
39776;SDS011;25453;48.162;14.510;2024-03-29T01:21:56;2.03;;;1.20;;
39776;SDS011;25453;48.162;14.510;2024-03-29T01:24:22;2.20;;;1.05;;
39776;SDS011;25453;48.162;14.510;2024-03-29T01:26:48;3.22;;;1.50;;
39776;SDS011;25453;48.162;14.510;2024-03-29T01:29:14;2.53;;;1.40;;
39776;SDS011;25453;48.162;14.510;2024-03-29T01:31:40;1.75;;;0.90;;
39776;SDS011;25453;48.162;14.510;2024-03-29T01:34:07;3.22;;;1.13;;
39776;SDS011;25453;48.162;14.510;2024-03-29T01:36:33;2.90;;;1.40;;
39776;SDS011;25453;48.162;14.510;2024-03-29T01:38:59;3.33;;;1.15;;
39776;SDS011;25453;48.162;14.510;2024-03-29T01:41:26;1.75;;;1.08;;
39776;SDS011;25453;48.162;14.510;2024-03-29T01:43:56;1.40;;;0.93;;
39776;SDS011;25453;48.162;14.510;2024-03-29T01:46:22;2.25;;;1.20;;
39776;SDS011;25453;48.162;14.510;2024-03-29T01:48:50;1.70;;;0.80;;
39776;SDS011;25453;48.162;14.510;2024-03-29T01:51:17;1.27;;;0.93;;
39776;SDS011;25453;48.162;14.510;2024-03-29T01:53:45;1.50;;;1.00;;
39776;SDS011;25453;48.162;14.510;2024-03-29T01:56:13;2.13;;;0.90;;
39776;SDS011;25453;48.162;14.510;2024-03-29T01:58:41;1.63;;;0.80;;
39776;SDS011;25453;48.162;14.510;2024-03-29T02:01:08;1.33;;;0.60;;
39776;SDS011;25453;48.162;14.510;2024-03-29T02:03:37;1.60;;;0.82;;
39776;SDS011;25453;48.162;14.510;2024-03-29T02:06:03;2.22;;;1.10;;
39776;SDS011;25453;48.162;14.510;2024-03-29T02:08:30;1.27;;;0.73;;
39776;SDS011;25453;48.162;14.510;2024-03-29T02:10:56;2.70;;;1.02;;
39776;SDS011;25453;48.162;14.510;2024-03-29T02:13:24;1.98;;;1.52;;
39776;SDS011;25453;48.162;14.510;2024-03-29T02:15:50;2.28;;;1.20;;
39776;SDS011;25453;48.162;14.510;2024-03-29T02:18:16;2.45;;;0.95;;
39776;SDS011;25453;48.162;14.510;2024-03-29T02:20:42;2.28;;;1.05;;
39776;SDS011;25453;48.162;14.510;2024-03-29T02:23:10;1.67;;;1.00;;
39776;SDS011;25453;48.162;14.510;2024-03-29T02:25:43;1.52;;;0.85;;
39776;SDS011;25453;48.162;14.510;2024-03-29T02:28:10;1.65;;;0.90;;
39776;SDS011;25453;48.162;14.510;2024-03-29T02:30:36;2.63;;;1.10;;
39776;SDS011;25453;48.162;14.510;2024-03-29T02:33:03;3.40;;;1.30;;
39776;SDS011;25453;48.162;14.510;2024-03-29T02:35:29;2.22;;;1.10;;
39776;SDS011;25453;48.162;14.510;2024-03-29T02:37:56;3.20;;;1.33;;
39776;SDS011;25453;48.162;14.510;2024-03-29T02:40:22;2.72;;;1.20;;
39776;SDS011;25453;48.162;14.510;2024-03-29T02:42:48;2.90;;;1.35;;
39776;SDS011;25453;48.162;14.510;2024-03-29T02:45:15;2.55;;;1.20;;
39776;SDS011;25453;48.162;14.510;2024-03-29T02:47:42;2.17;;;1.10;;
39776;SDS011;25453;48.162;14.510;2024-03-29T02:50:09;4.88;;;1.10;;
39776;SDS011;25453;48.162;14.510;2024-03-29T02:52:36;2.65;;;1.45;;
39776;SDS011;25453;48.162;14.510;2024-03-29T02:55:03;4.32;;;1.38;;
39776;SDS011;25453;48.162;14.510;2024-03-29T02:57:29;1.63;;;0.80;;
39776;SDS011;25453;48.162;14.510;2024-03-29T02:59:55;2.05;;;0.98;;
39776;SDS011;25453;48.162;14.510;2024-03-29T03:02:21;2.72;;;0.85;;
39776;SDS011;25453;48.162;14.510;2024-03-29T03:04:47;1.92;;;1.40;;
39776;SDS011;25453;48.162;14.510;2024-03-29T03:07:14;1.88;;;1.20;;
39776;SDS011;25453;48.162;14.510;2024-03-29T03:09:58;2.17;;;1.20;;
39776;SDS011;25453;48.162;14.510;2024-03-29T03:12:43;1.42;;;1.00;;
39776;SDS011;25453;48.162;14.510;2024-03-29T03:15:09;1.70;;;1.08;;
39776;SDS011;25453;48.162;14.510;2024-03-29T03:17:35;3.58;;;1.20;;
39776;SDS011;25453;48.162;14.510;2024-03-29T03:20:01;1.15;;;0.77;;
39776;SDS011;25453;48.162;14.510;2024-03-29T03:22:30;1.67;;;1.20;;
39776;SDS011;25453;48.162;14.510;2024-03-29T03:24:56;2.13;;;1.00;;
39776;SDS011;25453;48.162;14.510;2024-03-29T03:27:22;1.77;;;1.10;;
39776;SDS011;25453;48.162;14.510;2024-03-29T03:29:49;2.65;;;0.98;;
39776;SDS011;25453;48.162;14.510;2024-03-29T03:32:15;1.58;;;0.95;;
39776;SDS011;25453;48.162;14.510;2024-03-29T03:34:41;1.35;;;0.90;;
39776;SDS011;25453;48.162;14.510;2024-03-29T03:37:07;1.90;;;0.70;;
39776;SDS011;25453;48.162;14.510;2024-03-29T03:39:33;1.75;;;1.08;;
39776;SDS011;25453;48.162;14.510;2024-03-29T03:41:59;0.85;;;0.60;;
39776;SDS011;25453;48.162;14.510;2024-03-29T03:44:25;1.52;;;0.90;;
39776;SDS011;25453;48.162;14.510;2024-03-29T03:46:54;1.65;;;1.00;;
39776;SDS011;25453;48.162;14.510;2024-03-29T03:49:20;1.48;;;0.82;;
39776;SDS011;25453;48.162;14.510;2024-03-29T03:51:47;1.23;;;0.70;;
39776;SDS011;25453;48.162;14.510;2024-03-29T03:54:13;1.40;;;0.90;;
39776;SDS011;25453;48.162;14.510;2024-03-29T03:56:39;1.60;;;0.82;;
39776;SDS011;25453;48.162;14.510;2024-03-29T03:59:05;0.93;;;0.73;;
39776;SDS011;25453;48.162;14.510;2024-03-29T04:01:32;1.30;;;0.70;;
39776;SDS011;25453;48.162;14.510;2024-03-29T04:03:59;2.67;;;1.00;;
39776;SDS011;25453;48.162;14.510;2024-03-29T04:06:25;1.70;;;0.73;;
39776;SDS011;25453;48.162;14.510;2024-03-29T04:08:51;1.08;;;0.68;;
39776;SDS011;25453;48.162;14.510;2024-03-29T04:11:18;1.60;;;0.93;;
39776;SDS011;25453;48.162;14.510;2024-03-29T04:13:45;1.70;;;1.00;;
39776;SDS011;25453;48.162;14.510;2024-03-29T04:16:11;1.30;;;0.60;;
39776;SDS011;25453;48.162;14.510;2024-03-29T04:18:37;1.17;;;0.70;;
39776;SDS011;25453;48.162;14.510;2024-03-29T04:21:04;1.77;;;1.02;;
39776;SDS011;25453;48.162;14.510;2024-03-29T04:23:30;1.73;;;0.63;;
39776;SDS011;25453;48.162;14.510;2024-03-29T04:25:57;1.00;;;0.50;;
39776;SDS011;25453;48.162;14.510;2024-03-29T04:28:24;1.48;;;0.95;;
39776;SDS011;25453;48.162;14.510;2024-03-29T04:33:17;1.33;;;0.77;;
39776;SDS011;25453;48.162;14.510;2024-03-29T04:38:26;1.17;;;0.47;;
39776;SDS011;25453;48.162;14.510;2024-03-29T04:40:53;0.93;;;0.40;;
39776;SDS011;25453;48.162;14.510;2024-03-29T04:43:21;0.50;;;0.35;;
39776;SDS011;25453;48.162;14.510;2024-03-29T04:45:49;1.63;;;0.60;;
39776;SDS011;25453;48.162;14.510;2024-03-29T04:48:15;1.08;;;0.40;;
39776;SDS011;25453;48.162;14.510;2024-03-29T04:50:41;1.17;;;0.47;;
39776;SDS011;25453;48.162;14.510;2024-03-29T04:53:08;1.75;;;0.40;;
39776;SDS011;25453;48.162;14.510;2024-03-29T04:55:34;0.50;;;0.35;;
39776;SDS011;25453;48.162;14.510;2024-03-29T04:58:01;0.63;;;0.52;;
39776;SDS011;25453;48.162;14.510;2024-03-29T05:00:27;1.25;;;0.60;;
39776;SDS011;25453;48.162;14.510;2024-03-29T05:02:54;0.63;;;0.40;;
39776;SDS011;25453;48.162;14.510;2024-03-29T05:05:20;1.80;;;0.30;;
39776;SDS011;25453;48.162;14.510;2024-03-29T05:07:46;0.32;;;0.20;;
39776;SDS011;25453;48.162;14.510;2024-03-29T05:10:12;0.70;;;0.30;;
39776;SDS011;25453;48.162;14.510;2024-03-29T05:12:38;0.73;;;0.38;;
39776;SDS011;25453;48.162;14.510;2024-03-29T05:15:05;0.98;;;0.45;;
39776;SDS011;25453;48.162;14.510;2024-03-29T05:17:31;0.75;;;0.40;;
39776;SDS011;25453;48.162;14.510;2024-03-29T05:19:57;1.58;;;0.70;;
39776;SDS011;25453;48.162;14.510;2024-03-29T05:22:23;0.55;;;0.30;;
39776;SDS011;25453;48.162;14.510;2024-03-29T05:24:52;0.43;;;0.40;;
39776;SDS011;25453;48.162;14.510;2024-03-29T05:27:19;0.35;;;0.30;;
39776;SDS011;25453;48.162;14.510;2024-03-29T05:29:46;0.80;;;0.38;;
39776;SDS011;25453;48.162;14.510;2024-03-29T05:32:12;0.40;;;0.38;;
39776;SDS011;25453;48.162;14.510;2024-03-29T05:34:38;0.90;;;0.30;;
39776;SDS011;25453;48.162;14.510;2024-03-29T05:37:04;0.77;;;0.30;;
39776;SDS011;25453;48.162;14.510;2024-03-29T05:39:33;1.42;;;0.40;;
39776;SDS011;25453;48.162;14.510;2024-03-29T05:41:59;0.88;;;0.50;;
39776;SDS011;25453;48.162;14.510;2024-03-29T05:44:25;1.65;;;0.43;;
39776;SDS011;25453;48.162;14.510;2024-03-29T05:46:52;1.05;;;0.47;;
39776;SDS011;25453;48.162;14.510;2024-03-29T05:49:18;0.77;;;0.32;;
39776;SDS011;25453;48.162;14.510;2024-03-29T05:51:44;0.30;;;0.20;;
39776;SDS011;25453;48.162;14.510;2024-03-29T05:54:10;1.35;;;0.40;;
39776;SDS011;25453;48.162;14.510;2024-03-29T05:56:36;1.50;;;0.50;;
39776;SDS011;25453;48.162;14.510;2024-03-29T05:59:02;0.30;;;0.30;;
39776;SDS011;25453;48.162;14.510;2024-03-29T06:01:29;0.63;;;0.40;;
39776;SDS011;25453;48.162;14.510;2024-03-29T06:03:56;0.35;;;0.30;;
39776;SDS011;25453;48.162;14.510;2024-03-29T06:06:28;1.17;;;0.40;;
39776;SDS011;25453;48.162;14.510;2024-03-29T06:08:54;0.68;;;0.40;;
39776;SDS011;25453;48.162;14.510;2024-03-29T06:11:20;0.75;;;0.30;;
39776;SDS011;25453;48.162;14.510;2024-03-29T06:13:47;0.70;;;0.40;;
39776;SDS011;25453;48.162;14.510;2024-03-29T06:16:23;1.10;;;0.38;;
39776;SDS011;25453;48.162;14.510;2024-03-29T06:19:09;0.68;;;0.40;;
39776;SDS011;25453;48.162;14.510;2024-03-29T06:21:36;1.00;;;0.38;;
39776;SDS011;25453;48.162;14.510;2024-03-29T06:24:08;0.80;;;0.55;;
39776;SDS011;25453;48.162;14.510;2024-03-29T06:26:39;1.10;;;0.40;;
39776;SDS011;25453;48.162;14.510;2024-03-29T06:29:06;1.33;;;0.55;;
39776;SDS011;25453;48.162;14.510;2024-03-29T06:31:36;0.40;;;0.30;;
39776;SDS011;25453;48.162;14.510;2024-03-29T06:34:02;0.55;;;0.40;;
39776;SDS011;25453;48.162;14.510;2024-03-29T06:36:28;0.65;;;0.30;;
39776;SDS011;25453;48.162;14.510;2024-03-29T06:38:56;0.47;;;0.30;;
39776;SDS011;25453;48.162;14.510;2024-03-29T06:41:22;1.35;;;0.45;;
39776;SDS011;25453;48.162;14.510;2024-03-29T06:43:48;1.13;;;0.40;;
39776;SDS011;25453;48.162;14.510;2024-03-29T06:46:15;0.20;;;0.20;;
39776;SDS011;25453;48.162;14.510;2024-03-29T06:48:41;0.93;;;0.30;;
39776;SDS011;25453;48.162;14.510;2024-03-29T06:51:07;0.80;;;0.20;;
39776;SDS011;25453;48.162;14.510;2024-03-29T06:53:33;1.00;;;0.30;;
39776;SDS011;25453;48.162;14.510;2024-03-29T06:55:59;0.50;;;0.20;;
39776;SDS011;25453;48.162;14.510;2024-03-29T06:58:27;0.15;;;0.13;;
39776;SDS011;25453;48.162;14.510;2024-03-29T07:00:53;0.60;;;0.30;;
39776;SDS011;25453;48.162;14.510;2024-03-29T07:03:19;0.65;;;0.28;;
39776;SDS011;25453;48.162;14.510;2024-03-29T07:05:45;0.93;;;0.32;;
39776;SDS011;25453;48.162;14.510;2024-03-29T07:08:12;0.75;;;0.40;;
39776;SDS011;25453;48.162;14.510;2024-03-29T07:10:38;0.77;;;0.30;;
39776;SDS011;25453;48.162;14.510;2024-03-29T07:13:08;1.30;;;0.60;;
39776;SDS011;25453;48.162;14.510;2024-03-29T07:15:35;2.08;;;0.30;;
39776;SDS011;25453;48.162;14.510;2024-03-29T07:18:01;0.93;;;0.38;;
39776;SDS011;25453;48.162;14.510;2024-03-29T07:20:30;1.38;;;0.40;;
39776;SDS011;25453;48.162;14.510;2024-03-29T07:22:57;2.33;;;0.70;;
39776;SDS011;25453;48.162;14.510;2024-03-29T07:25:23;2.17;;;0.60;;
39776;SDS011;25453;48.162;14.510;2024-03-29T07:27:49;1.35;;;0.77;;
39776;SDS011;25453;48.162;14.510;2024-03-29T07:30:15;0.70;;;0.30;;
39776;SDS011;25453;48.162;14.510;2024-03-29T07:32:42;2.28;;;0.65;;
39776;SDS011;25453;48.162;14.510;2024-03-29T07:35:08;0.35;;;0.25;;
39776;SDS011;25453;48.162;14.510;2024-03-29T07:37:35;0.43;;;0.30;;
39776;SDS011;25453;48.162;14.510;2024-03-29T07:40:05;0.77;;;0.45;;
39776;SDS011;25453;48.162;14.510;2024-03-29T07:42:32;0.68;;;0.40;;
39776;SDS011;25453;48.162;14.510;2024-03-29T07:44:58;0.85;;;0.40;;
39776;SDS011;25453;48.162;14.510;2024-03-29T07:47:28;1.50;;;0.50;;
39776;SDS011;25453;48.162;14.510;2024-03-29T07:49:54;0.70;;;0.40;;
39776;SDS011;25453;48.162;14.510;2024-03-29T07:52:20;0.73;;;0.30;;
39776;SDS011;25453;48.162;14.510;2024-03-29T07:54:47;0.30;;;0.20;;
39776;SDS011;25453;48.162;14.510;2024-03-29T07:57:13;0.45;;;0.25;;
39776;SDS011;25453;48.162;14.510;2024-03-29T07:59:41;0.68;;;0.30;;
39776;SDS011;25453;48.162;14.510;2024-03-29T08:02:07;1.27;;;0.40;;
39776;SDS011;25453;48.162;14.510;2024-03-29T08:04:34;0.32;;;0.22;;
39776;SDS011;25453;48.162;14.510;2024-03-29T08:07:00;0.88;;;0.30;;
39776;SDS011;25453;48.162;14.510;2024-03-29T08:09:26;0.75;;;0.30;;
39776;SDS011;25453;48.162;14.510;2024-03-29T08:11:52;0.77;;;0.30;;
39776;SDS011;25453;48.162;14.510;2024-03-29T08:14:18;0.30;;;0.30;;
39776;SDS011;25453;48.162;14.510;2024-03-29T08:16:44;0.63;;;0.40;;
39776;SDS011;25453;48.162;14.510;2024-03-29T08:19:11;0.38;;;0.30;;
39776;SDS011;25453;48.162;14.510;2024-03-29T08:21:37;1.08;;;0.30;;
39776;SDS011;25453;48.162;14.510;2024-03-29T08:24:03;1.27;;;0.30;;
39776;SDS011;25453;48.162;14.510;2024-03-29T08:26:29;1.08;;;0.30;;
39776;SDS011;25453;48.162;14.510;2024-03-29T08:28:56;1.17;;;0.30;;
39776;SDS011;25453;48.162;14.510;2024-03-29T08:31:23;0.40;;;0.30;;
39776;SDS011;25453;48.162;14.510;2024-03-29T08:33:49;0.93;;;0.30;;
39776;SDS011;25453;48.162;14.510;2024-03-29T08:36:16;1.38;;;0.30;;
39776;SDS011;25453;48.162;14.510;2024-03-29T08:38:42;0.32;;;0.30;;
39776;SDS011;25453;48.162;14.510;2024-03-29T08:41:09;1.25;;;0.30;;
39776;SDS011;25453;48.162;14.510;2024-03-29T08:43:35;1.60;;;0.40;;
39776;SDS011;25453;48.162;14.510;2024-03-29T08:46:02;0.95;;;0.40;;
39776;SDS011;25453;48.162;14.510;2024-03-29T08:48:28;0.43;;;0.40;;
39776;SDS011;25453;48.162;14.510;2024-03-29T08:50:54;0.50;;;0.30;;
39776;SDS011;25453;48.162;14.510;2024-03-29T08:53:21;0.50;;;0.30;;
39776;SDS011;25453;48.162;14.510;2024-03-29T08:55:48;4.40;;;0.30;;
39776;SDS011;25453;48.162;14.510;2024-03-29T08:58:14;1.02;;;0.40;;
39776;SDS011;25453;48.162;14.510;2024-03-29T09:00:40;0.43;;;0.30;;
39776;SDS011;25453;48.162;14.510;2024-03-29T09:03:06;0.47;;;0.22;;
39776;SDS011;25453;48.162;14.510;2024-03-29T09:05:33;0.40;;;0.20;;
39776;SDS011;25453;48.162;14.510;2024-03-29T09:07:59;1.77;;;0.30;;
39776;SDS011;25453;48.162;14.510;2024-03-29T09:10:25;0.52;;;0.20;;
39776;SDS011;25453;48.162;14.510;2024-03-29T09:12:54;0.68;;;0.30;;
39776;SDS011;25453;48.162;14.510;2024-03-29T09:15:20;0.32;;;0.20;;
39776;SDS011;25453;48.162;14.510;2024-03-29T09:17:46;2.45;;;0.30;;
39776;SDS011;25453;48.162;14.510;2024-03-29T09:20:12;2.78;;;0.50;;
39776;SDS011;25453;48.162;14.510;2024-03-29T09:22:39;0.75;;;0.40;;
39776;SDS011;25453;48.162;14.510;2024-03-29T09:25:05;0.20;;;0.20;;
39776;SDS011;25453;48.162;14.510;2024-03-29T09:27:36;0.85;;;0.63;;
39776;SDS011;25453;48.162;14.510;2024-03-29T09:30:03;0.52;;;0.38;;
39776;SDS011;25453;48.162;14.510;2024-03-29T09:32:32;0.22;;;0.20;;
39776;SDS011;25453;48.162;14.510;2024-03-29T09:34:59;0.20;;;0.20;;
39776;SDS011;25453;48.162;14.510;2024-03-29T09:37:26;0.90;;;0.30;;
39776;SDS011;25453;48.162;14.510;2024-03-29T09:39:52;0.75;;;0.30;;
39776;SDS011;25453;48.162;14.510;2024-03-29T09:42:18;0.55;;;0.20;;
39776;SDS011;25453;48.162;14.510;2024-03-29T09:44:51;1.30;;;0.30;;
39776;SDS011;25453;48.162;14.510;2024-03-29T09:47:21;0.20;;;0.20;;
39776;SDS011;25453;48.162;14.510;2024-03-29T09:49:49;0.32;;;0.20;;
39776;SDS011;25453;48.162;14.510;2024-03-29T09:52:16;0.20;;;0.20;;
39776;SDS011;25453;48.162;14.510;2024-03-29T09:54:44;0.65;;;0.20;;
39776;SDS011;25453;48.162;14.510;2024-03-29T09:57:10;0.35;;;0.20;;
39776;SDS011;25453;48.162;14.510;2024-03-29T09:59:38;0.28;;;0.20;;
39776;SDS011;25453;48.162;14.510;2024-03-29T10:02:10;1.20;;;0.30;;
39776;SDS011;25453;48.162;14.510;2024-03-29T10:04:40;2.03;;;0.35;;
39776;SDS011;25453;48.162;14.510;2024-03-29T10:07:08;2.25;;;0.30;;
39776;SDS011;25453;48.162;14.510;2024-03-29T10:09:37;0.55;;;0.32;;
39776;SDS011;25453;48.162;14.510;2024-03-29T10:12:04;0.45;;;0.20;;
39776;SDS011;25453;48.162;14.510;2024-03-29T10:14:31;0.32;;;0.22;;
39776;SDS011;25453;48.162;14.510;2024-03-29T10:16:57;2.28;;;0.30;;
39776;SDS011;25453;48.162;14.510;2024-03-29T10:19:24;0.55;;;0.30;;
39776;SDS011;25453;48.162;14.510;2024-03-29T10:21:50;0.52;;;0.20;;
39776;SDS011;25453;48.162;14.510;2024-03-29T10:24:17;0.30;;;0.20;;
39776;SDS011;25453;48.162;14.510;2024-03-29T10:26:43;0.57;;;0.28;;
39776;SDS011;25453;48.162;14.510;2024-03-29T10:29:10;2.72;;;0.88;;
39776;SDS011;25453;48.162;14.510;2024-03-29T10:31:36;0.20;;;0.20;;
39776;SDS011;25453;48.162;14.510;2024-03-29T10:34:03;2.30;;;0.77;;
39776;SDS011;25453;48.162;14.510;2024-03-29T10:36:34;0.52;;;0.30;;
39776;SDS011;25453;48.162;14.510;2024-03-29T10:39:13;0.47;;;0.30;;
39776;SDS011;25453;48.162;14.510;2024-03-29T10:41:41;1.25;;;0.47;;
39776;SDS011;25453;48.162;14.510;2024-03-29T10:44:09;0.30;;;0.30;;
39776;SDS011;25453;48.162;14.510;2024-03-29T10:46:40;1.65;;;0.30;;
39776;SDS011;25453;48.162;14.510;2024-03-29T10:49:13;0.30;;;0.20;;
39776;SDS011;25453;48.162;14.510;2024-03-29T10:51:42;0.47;;;0.25;;
39776;SDS011;25453;48.162;14.510;2024-03-29T10:54:09;1.23;;;0.40;;
39776;SDS011;25453;48.162;14.510;2024-03-29T10:56:36;1.10;;;0.47;;
39776;SDS011;25453;48.162;14.510;2024-03-29T10:59:16;0.77;;;0.30;;
39776;SDS011;25453;48.162;14.510;2024-03-29T11:01:49;0.57;;;0.30;;
39776;SDS011;25453;48.162;14.510;2024-03-29T11:04:25;0.32;;;0.28;;
39776;SDS011;25453;48.162;14.510;2024-03-29T11:06:57;1.52;;;0.40;;
39776;SDS011;25453;48.162;14.510;2024-03-29T11:09:27;0.20;;;0.20;;
39776;SDS011;25453;48.162;14.510;2024-03-29T11:11:56;0.25;;;0.20;;
39776;SDS011;25453;48.162;14.510;2024-03-29T11:14:37;0.20;;;0.20;;
39776;SDS011;25453;48.162;14.510;2024-03-29T11:17:21;0.85;;;0.30;;
39776;SDS011;25453;48.162;14.510;2024-03-29T11:19:48;0.30;;;0.20;;
39776;SDS011;25453;48.162;14.510;2024-03-29T11:22:15;1.00;;;0.30;;
39776;SDS011;25453;48.162;14.510;2024-03-29T11:24:41;1.35;;;0.57;;
39776;SDS011;25453;48.162;14.510;2024-03-29T11:27:11;1.17;;;0.55;;
39776;SDS011;25453;48.162;14.510;2024-03-29T11:29:41;0.68;;;0.32;;
39776;SDS011;25453;48.162;14.510;2024-03-29T11:32:11;1.08;;;0.50;;
39776;SDS011;25453;48.162;14.510;2024-03-29T11:34:43;1.02;;;0.30;;
39776;SDS011;25453;48.162;14.510;2024-03-29T11:37:11;2.78;;;0.95;;
39776;SDS011;25453;48.162;14.510;2024-03-29T11:39:46;0.60;;;0.38;;
39776;SDS011;25453;48.162;14.510;2024-03-29T11:42:13;2.70;;;0.30;;
39776;SDS011;25453;48.162;14.510;2024-03-29T11:44:39;0.95;;;0.40;;
39776;SDS011;25453;48.162;14.510;2024-03-29T11:47:05;0.30;;;0.30;;
39776;SDS011;25453;48.162;14.510;2024-03-29T11:49:33;1.08;;;0.40;;
39776;SDS011;25453;48.162;14.510;2024-03-29T11:52:05;1.85;;;0.50;;
39776;SDS011;25453;48.162;14.510;2024-03-29T11:54:38;0.77;;;0.30;;
39776;SDS011;25453;48.162;14.510;2024-03-29T11:57:05;0.90;;;0.50;;
39776;SDS011;25453;48.162;14.510;2024-03-29T11:59:31;0.38;;;0.35;;
39776;SDS011;25453;48.162;14.510;2024-03-29T12:01:57;0.57;;;0.28;;
39776;SDS011;25453;48.162;14.510;2024-03-29T12:04:23;1.38;;;0.30;;
39776;SDS011;25453;48.162;14.510;2024-03-29T12:06:49;0.43;;;0.38;;
39776;SDS011;25453;48.162;14.510;2024-03-29T12:09:15;1.17;;;0.38;;
39776;SDS011;25453;48.162;14.510;2024-03-29T12:11:47;1.27;;;0.40;;
39776;SDS011;25453;48.162;14.510;2024-03-29T12:14:15;1.38;;;0.60;;
39776;SDS011;25453;48.162;14.510;2024-03-29T12:16:45;0.70;;;0.32;;
39776;SDS011;25453;48.162;14.510;2024-03-29T12:19:24;0.40;;;0.20;;
39776;SDS011;25453;48.162;14.510;2024-03-29T12:21:50;0.20;;;0.20;;
39776;SDS011;25453;48.162;14.510;2024-03-29T12:24:17;0.30;;;0.28;;
39776;SDS011;25453;48.162;14.510;2024-03-29T12:26:43;0.38;;;0.30;;
39776;SDS011;25453;48.162;14.510;2024-03-29T12:29:10;1.50;;;0.38;;
39776;SDS011;25453;48.162;14.510;2024-03-29T12:31:36;1.65;;;0.28;;
39776;SDS011;25453;48.162;14.510;2024-03-29T12:34:04;0.70;;;0.40;;
39776;SDS011;25453;48.162;14.510;2024-03-29T12:36:32;1.05;;;0.30;;
39776;SDS011;25453;48.162;14.510;2024-03-29T12:38:59;0.40;;;0.30;;
39776;SDS011;25453;48.162;14.510;2024-03-29T12:41:29;0.57;;;0.40;;
39776;SDS011;25453;48.162;14.510;2024-03-29T12:43:55;0.57;;;0.43;;
39776;SDS011;25453;48.162;14.510;2024-03-29T12:46:21;0.38;;;0.30;;
39776;SDS011;25453;48.162;14.510;2024-03-29T12:48:47;1.02;;;0.40;;
39776;SDS011;25453;48.162;14.510;2024-03-29T12:51:13;1.10;;;0.35;;
39776;SDS011;25453;48.162;14.510;2024-03-29T12:53:44;2.65;;;0.40;;
39776;SDS011;25453;48.162;14.510;2024-03-29T12:56:11;0.50;;;0.30;;
39776;SDS011;25453;48.162;14.510;2024-03-29T12:58:37;1.77;;;0.30;;
39776;SDS011;25453;48.162;14.510;2024-03-29T13:01:03;0.80;;;0.30;;
39776;SDS011;25453;48.162;14.510;2024-03-29T13:03:31;1.42;;;0.43;;
39776;SDS011;25453;48.162;14.510;2024-03-29T13:05:57;0.52;;;0.35;;
39776;SDS011;25453;48.162;14.510;2024-03-29T13:08:23;1.00;;;0.40;;
39776;SDS011;25453;48.162;14.510;2024-03-29T13:10:49;0.30;;;0.30;;
39776;SDS011;25453;48.162;14.510;2024-03-29T13:13:16;1.40;;;0.30;;
39776;SDS011;25453;48.162;14.510;2024-03-29T13:15:42;0.52;;;0.30;;
39776;SDS011;25453;48.162;14.510;2024-03-29T13:18:08;0.60;;;0.30;;
39776;SDS011;25453;48.162;14.510;2024-03-29T13:20:36;0.70;;;0.35;;
39776;SDS011;25453;48.162;14.510;2024-03-29T13:23:07;2.60;;;0.45;;
39776;SDS011;25453;48.162;14.510;2024-03-29T13:25:34;0.80;;;0.43;;
39776;SDS011;25453;48.162;14.510;2024-03-29T13:28:00;0.73;;;0.30;;
39776;SDS011;25453;48.162;14.510;2024-03-29T13:30:26;1.60;;;0.32;;
39776;SDS011;25453;48.162;14.510;2024-03-29T13:32:53;0.57;;;0.32;;
39776;SDS011;25453;48.162;14.510;2024-03-29T13:35:19;1.20;;;0.43;;
39776;SDS011;25453;48.162;14.510;2024-03-29T13:37:49;0.70;;;0.30;;
39776;SDS011;25453;48.162;14.510;2024-03-29T13:40:19;2.95;;;0.40;;
39776;SDS011;25453;48.162;14.510;2024-03-29T13:42:46;1.25;;;0.40;;
39776;SDS011;25453;48.162;14.510;2024-03-29T13:45:14;0.60;;;0.20;;
39776;SDS011;25453;48.162;14.510;2024-03-29T13:47:41;0.43;;;0.30;;
39776;SDS011;25453;48.162;14.510;2024-03-29T13:50:09;1.02;;;0.60;;
39776;SDS011;25453;48.162;14.510;2024-03-29T13:52:36;1.20;;;0.50;;
39776;SDS011;25453;48.162;14.510;2024-03-29T13:55:03;0.20;;;0.20;;
39776;SDS011;25453;48.162;14.510;2024-03-29T13:57:30;1.42;;;0.30;;
39776;SDS011;25453;48.162;14.510;2024-03-29T14:00:00;0.38;;;0.35;;
39776;SDS011;25453;48.162;14.510;2024-03-29T14:02:27;1.25;;;0.60;;
39776;SDS011;25453;48.162;14.510;2024-03-29T14:04:54;0.77;;;0.35;;
39776;SDS011;25453;48.162;14.510;2024-03-29T14:07:21;0.20;;;0.20;;
39776;SDS011;25453;48.162;14.510;2024-03-29T14:09:50;0.43;;;0.35;;
39776;SDS011;25453;48.162;14.510;2024-03-29T14:12:17;1.58;;;0.40;;
39776;SDS011;25453;48.162;14.510;2024-03-29T14:14:46;0.63;;;0.30;;
39776;SDS011;25453;48.162;14.510;2024-03-29T14:17:16;1.33;;;0.20;;
39776;SDS011;25453;48.162;14.510;2024-03-29T14:19:42;0.93;;;0.30;;
39776;SDS011;25453;48.162;14.510;2024-03-29T14:22:09;0.40;;;0.30;;
39776;SDS011;25453;48.162;14.510;2024-03-29T14:24:37;1.40;;;0.50;;
39776;SDS011;25453;48.162;14.510;2024-03-29T14:27:05;0.80;;;0.30;;
39776;SDS011;25453;48.162;14.510;2024-03-29T14:29:32;2.08;;;0.40;;
39776;SDS011;25453;48.162;14.510;2024-03-29T14:31:59;0.85;;;0.30;;
39776;SDS011;25453;48.162;14.510;2024-03-29T14:34:26;0.60;;;0.30;;
39776;SDS011;25453;48.162;14.510;2024-03-29T14:36:53;1.10;;;0.20;;
39776;SDS011;25453;48.162;14.510;2024-03-29T14:39:19;0.85;;;0.40;;